International Virtual Aviation Organisation

Russian Federation and Kazakhstan MCD

 

Карточка аэропорта UWOO

Внимание!
Информация на этой странице в стадии наполнения.
Если вы не увидели какой-то информации, или заметили неточность - пожалуйста сообщите нам!
Спасибо!
Команда RU-STAFF
Название аэропортаОренбург
Название аэропорта (англ.)Orenburg
Превышение387 ft. (118 m.)
Координаты51°48', 55°27'
Высота перехода700m
Эшелон переходаBy ATC
Коды ответчика2440-2443
Зона ОрВДСамара РПИ (UWWW)
Данные METARUWOO 191630Z 00000MPS CAVOK 25/10 Q1022 R26/65D NOSIG RMK QFE756/1008
Проноз погоды (TAF)UWOO 191346Z 1915/2015 26003G08MPS 9999 SCT020CB BKN040 TX37/2012Z TN20/2001Z TEMPO 1915/2003 VRB01MPS TEMPO 2003/2015 25007G12MPS
NOTAMshow/hide NOTAM
AWOS   TABLE

Информация о ВПП

ВПП Длина ВПП (м.) Покрытие Курс ВПП Частота ILS
082501Асфальтобетон79109
262501Асфальтобетон259109.3

Диспетчерские позиции

Позывной Наименование органа УВД Частота
UWOO_TWRОренбург-Старт128.0
UWOO_R_APPОренбург - Круг120.400



Спутниковое изображение